sensor_id;sensor_type;location;lat;lon;timestamp;P1;durP1;ratioP1;P2;durP2;ratioP2
81006;SDS011;70472;47.592;17.640;2024-02-14T00:00:09;6.83;;;6.83;;
81006;SDS011;70472;47.592;17.640;2024-02-14T00:00:43;7.03;;;7.03;;
81006;SDS011;70472;47.592;17.640;2024-02-14T00:01:16;6.90;;;6.90;;
81006;SDS011;70472;47.592;17.640;2024-02-14T00:01:48;6.30;;;6.30;;
81006;SDS011;70472;47.592;17.640;2024-02-14T00:02:21;6.50;;;6.50;;
81006;SDS011;70472;47.592;17.640;2024-02-14T00:02:54;6.80;;;6.80;;
81006;SDS011;70472;47.592;17.640;2024-02-14T00:03:27;6.87;;;6.87;;
81006;SDS011;70472;47.592;17.640;2024-02-14T00:03:59;6.43;;;6.43;;
81006;SDS011;70472;47.592;17.640;2024-02-14T00:04:31;6.27;;;6.27;;
81006;SDS011;70472;47.592;17.640;2024-02-14T00:05:04;6.17;;;6.17;;
81006;SDS011;70472;47.592;17.640;2024-02-14T00:05:37;6.43;;;6.43;;
81006;SDS011;70472;47.592;17.640;2024-02-14T00:06:09;6.37;;;6.37;;
81006;SDS011;70472;47.592;17.640;2024-02-14T00:06:42;6.73;;;6.73;;
81006;SDS011;70472;47.592;17.640;2024-02-14T00:07:14;6.83;;;6.83;;
81006;SDS011;70472;47.592;17.640;2024-02-14T00:07:47;6.57;;;6.57;;
81006;SDS011;70472;47.592;17.640;2024-02-14T00:08:19;6.57;;;6.57;;
81006;SDS011;70472;47.592;17.640;2024-02-14T00:08:52;6.30;;;6.30;;
81006;SDS011;70472;47.592;17.640;2024-02-14T00:09:24;6.93;;;6.93;;
81006;SDS011;70472;47.592;17.640;2024-02-14T00:09:57;6.30;;;6.30;;
81006;SDS011;70472;47.592;17.640;2024-02-14T00:10:29;6.40;;;6.40;;
81006;SDS011;70472;47.592;17.640;2024-02-14T00:11:01;6.10;;;6.10;;
81006;SDS011;70472;47.592;17.640;2024-02-14T00:11:34;6.87;;;6.87;;
81006;SDS011;70472;47.592;17.640;2024-02-14T00:12:06;7.63;;;7.63;;
81006;SDS011;70472;47.592;17.640;2024-02-14T00:12:39;8.10;;;8.10;;
81006;SDS011;70472;47.592;17.640;2024-02-14T00:13:11;7.33;;;7.33;;
81006;SDS011;70472;47.592;17.640;2024-02-14T00:13:44;7.07;;;7.07;;
81006;SDS011;70472;47.592;17.640;2024-02-14T00:14:16;7.13;;;7.13;;
81006;SDS011;70472;47.592;17.640;2024-02-14T00:14:49;7.20;;;7.20;;
81006;SDS011;70472;47.592;17.640;2024-02-14T00:15:22;7.33;;;7.33;;
81006;SDS011;70472;47.592;17.640;2024-02-14T00:15:54;7.63;;;7.63;;
81006;SDS011;70472;47.592;17.640;2024-02-14T00:16:27;7.47;;;7.47;;
81006;SDS011;70472;47.592;17.640;2024-02-14T00:17:00;6.73;;;6.73;;
81006;SDS011;70472;47.592;17.640;2024-02-14T00:17:33;6.63;;;6.63;;
81006;SDS011;70472;47.592;17.640;2024-02-14T00:18:06;6.50;;;6.50;;
81006;SDS011;70472;47.592;17.640;2024-02-14T00:18:38;7.10;;;7.10;;
81006;SDS011;70472;47.592;17.640;2024-02-14T00:19:11;8.10;;;8.10;;
81006;SDS011;70472;47.592;17.640;2024-02-14T00:19:43;7.77;;;7.77;;
81006;SDS011;70472;47.592;17.640;2024-02-14T00:20:16;7.60;;;7.60;;
81006;SDS011;70472;47.592;17.640;2024-02-14T00:20:48;6.10;;;6.10;;
81006;SDS011;70472;47.592;17.640;2024-02-14T00:21:21;6.90;;;6.90;;
81006;SDS011;70472;47.592;17.640;2024-02-14T00:21:53;6.87;;;6.87;;
81006;SDS011;70472;47.592;17.640;2024-02-14T00:22:26;6.97;;;6.97;;
81006;SDS011;70472;47.592;17.640;2024-02-14T00:22:58;7.50;;;7.50;;
81006;SDS011;70472;47.592;17.640;2024-02-14T00:23:30;7.50;;;7.50;;
81006;SDS011;70472;47.592;17.640;2024-02-14T00:24:03;6.80;;;6.80;;
81006;SDS011;70472;47.592;17.640;2024-02-14T00:24:36;7.53;;;7.53;;
81006;SDS011;70472;47.592;17.640;2024-02-14T00:25:08;7.17;;;7.17;;
81006;SDS011;70472;47.592;17.640;2024-02-14T00:25:41;7.37;;;7.37;;
81006;SDS011;70472;47.592;17.640;2024-02-14T00:26:13;7.03;;;7.03;;
81006;SDS011;70472;47.592;17.640;2024-02-14T00:26:46;7.50;;;7.50;;
81006;SDS011;70472;47.592;17.640;2024-02-14T00:27:18;7.13;;;7.13;;
81006;SDS011;70472;47.592;17.640;2024-02-14T00:27:51;7.10;;;7.10;;
81006;SDS011;70472;47.592;17.640;2024-02-14T00:28:23;7.23;;;7.23;;
81006;SDS011;70472;47.592;17.640;2024-02-14T00:28:56;6.83;;;6.83;;
81006;SDS011;70472;47.592;17.640;2024-02-14T00:29:28;6.73;;;6.73;;
81006;SDS011;70472;47.592;17.640;2024-02-14T00:30:01;6.77;;;6.77;;
81006;SDS011;70472;47.592;17.640;2024-02-14T00:30:33;6.50;;;6.50;;
81006;SDS011;70472;47.592;17.640;2024-02-14T00:31:06;6.37;;;6.37;;
81006;SDS011;70472;47.592;17.640;2024-02-14T00:31:38;6.93;;;6.93;;
81006;SDS011;70472;47.592;17.640;2024-02-14T00:32:13;7.40;;;7.40;;
81006;SDS011;70472;47.592;17.640;2024-02-14T00:32:46;6.50;;;6.50;;
81006;SDS011;70472;47.592;17.640;2024-02-14T00:33:20;7.33;;;7.33;;
81006;SDS011;70472;47.592;17.640;2024-02-14T00:33:52;7.50;;;7.50;;
81006;SDS011;70472;47.592;17.640;2024-02-14T00:34:25;7.30;;;7.30;;
81006;SDS011;70472;47.592;17.640;2024-02-14T00:34:57;7.10;;;7.10;;
81006;SDS011;70472;47.592;17.640;2024-02-14T00:35:30;7.07;;;7.07;;
81006;SDS011;70472;47.592;17.640;2024-02-14T00:36:02;6.97;;;6.97;;
81006;SDS011;70472;47.592;17.640;2024-02-14T00:36:35;6.90;;;6.90;;
81006;SDS011;70472;47.592;17.640;2024-02-14T00:37:07;6.50;;;6.50;;
81006;SDS011;70472;47.592;17.640;2024-02-14T00:37:40;6.93;;;6.93;;
81006;SDS011;70472;47.592;17.640;2024-02-14T00:38:13;7.50;;;7.50;;
81006;SDS011;70472;47.592;17.640;2024-02-14T00:38:46;7.23;;;7.23;;
81006;SDS011;70472;47.592;17.640;2024-02-14T00:39:18;7.73;;;7.73;;
81006;SDS011;70472;47.592;17.640;2024-02-14T00:39:51;7.53;;;7.53;;
81006;SDS011;70472;47.592;17.640;2024-02-14T00:40:23;6.73;;;6.73;;
81006;SDS011;70472;47.592;17.640;2024-02-14T00:40:56;7.53;;;7.53;;
81006;SDS011;70472;47.592;17.640;2024-02-14T00:41:28;7.80;;;7.80;;
81006;SDS011;70472;47.592;17.640;2024-02-14T00:42:01;7.07;;;7.07;;
81006;SDS011;70472;47.592;17.640;2024-02-14T00:42:33;7.33;;;7.33;;
81006;SDS011;70472;47.592;17.640;2024-02-14T00:43:06;6.97;;;6.97;;
81006;SDS011;70472;47.592;17.640;2024-02-14T00:43:38;7.17;;;7.17;;
81006;SDS011;70472;47.592;17.640;2024-02-14T00:44:11;7.60;;;7.60;;
81006;SDS011;70472;47.592;17.640;2024-02-14T00:44:44;7.77;;;7.77;;
81006;SDS011;70472;47.592;17.640;2024-02-14T00:45:16;7.47;;;7.47;;
81006;SDS011;70472;47.592;17.640;2024-02-14T00:45:48;7.57;;;7.57;;
81006;SDS011;70472;47.592;17.640;2024-02-14T00:46:21;6.97;;;6.97;;
81006;SDS011;70472;47.592;17.640;2024-02-14T00:46:57;6.97;;;6.97;;
81006;SDS011;70472;47.592;17.640;2024-02-14T00:47:29;7.00;;;7.00;;
81006;SDS011;70472;47.592;17.640;2024-02-14T00:48:06;7.00;;;7.00;;
81006;SDS011;70472;47.592;17.640;2024-02-14T00:48:39;7.00;;;7.00;;
81006;SDS011;70472;47.592;17.640;2024-02-14T00:49:12;7.10;;;7.10;;
81006;SDS011;70472;47.592;17.640;2024-02-14T00:49:44;7.20;;;7.20;;
81006;SDS011;70472;47.592;17.640;2024-02-14T00:50:17;7.20;;;7.20;;
81006;SDS011;70472;47.592;17.640;2024-02-14T00:50:49;7.53;;;7.53;;
81006;SDS011;70472;47.592;17.640;2024-02-14T00:51:22;7.00;;;7.00;;
81006;SDS011;70472;47.592;17.640;2024-02-14T00:51:54;7.13;;;7.13;;
81006;SDS011;70472;47.592;17.640;2024-02-14T00:52:27;7.43;;;7.43;;
81006;SDS011;70472;47.592;17.640;2024-02-14T00:52:59;6.90;;;6.90;;
81006;SDS011;70472;47.592;17.640;2024-02-14T00:53:32;6.73;;;6.73;;
81006;SDS011;70472;47.592;17.640;2024-02-14T00:54:04;7.33;;;7.33;;
81006;SDS011;70472;47.592;17.640;2024-02-14T00:54:37;7.40;;;7.40;;
81006;SDS011;70472;47.592;17.640;2024-02-14T00:55:10;7.27;;;7.27;;
81006;SDS011;70472;47.592;17.640;2024-02-14T00:55:42;7.43;;;7.43;;
81006;SDS011;70472;47.592;17.640;2024-02-14T00:56:14;7.57;;;7.57;;
81006;SDS011;70472;47.592;17.640;2024-02-14T00:56:47;6.47;;;6.47;;
81006;SDS011;70472;47.592;17.640;2024-02-14T00:57:19;6.97;;;6.97;;
81006;SDS011;70472;47.592;17.640;2024-02-14T00:57:52;7.40;;;7.40;;
81006;SDS011;70472;47.592;17.640;2024-02-14T00:58:24;7.40;;;7.40;;
81006;SDS011;70472;47.592;17.640;2024-02-14T00:58:57;7.43;;;7.43;;
81006;SDS011;70472;47.592;17.640;2024-02-14T00:59:31;7.57;;;7.57;;
81006;SDS011;70472;47.592;17.640;2024-02-14T01:00:03;7.57;;;7.57;;
81006;SDS011;70472;47.592;17.640;2024-02-14T01:00:38;7.70;;;7.70;;
81006;SDS011;70472;47.592;17.640;2024-02-14T01:01:10;7.57;;;7.57;;
81006;SDS011;70472;47.592;17.640;2024-02-14T01:01:43;7.70;;;7.70;;
81006;SDS011;70472;47.592;17.640;2024-02-14T01:02:15;7.73;;;7.73;;
81006;SDS011;70472;47.592;17.640;2024-02-14T01:02:48;7.27;;;7.27;;
81006;SDS011;70472;47.592;17.640;2024-02-14T01:03:21;7.27;;;7.27;;
81006;SDS011;70472;47.592;17.640;2024-02-14T01:03:53;7.17;;;7.17;;
81006;SDS011;70472;47.592;17.640;2024-02-14T01:04:26;6.93;;;6.93;;
81006;SDS011;70472;47.592;17.640;2024-02-14T01:04:58;6.80;;;6.80;;
81006;SDS011;70472;47.592;17.640;2024-02-14T01:05:31;6.93;;;6.93;;
81006;SDS011;70472;47.592;17.640;2024-02-14T01:06:04;7.07;;;7.07;;
81006;SDS011;70472;47.592;17.640;2024-02-14T01:06:36;7.77;;;7.77;;
81006;SDS011;70472;47.592;17.640;2024-02-14T01:07:08;7.43;;;7.43;;
81006;SDS011;70472;47.592;17.640;2024-02-14T01:07:41;7.87;;;7.87;;
81006;SDS011;70472;47.592;17.640;2024-02-14T01:08:13;7.20;;;7.20;;
81006;SDS011;70472;47.592;17.640;2024-02-14T01:08:46;7.23;;;7.23;;
81006;SDS011;70472;47.592;17.640;2024-02-14T01:09:18;7.80;;;7.80;;
81006;SDS011;70472;47.592;17.640;2024-02-14T01:09:51;8.10;;;8.10;;
81006;SDS011;70472;47.592;17.640;2024-02-14T01:10:23;7.23;;;7.23;;
81006;SDS011;70472;47.592;17.640;2024-02-14T01:10:55;7.20;;;7.20;;
81006;SDS011;70472;47.592;17.640;2024-02-14T01:11:28;7.23;;;7.23;;
81006;SDS011;70472;47.592;17.640;2024-02-14T01:12:00;7.33;;;7.33;;
81006;SDS011;70472;47.592;17.640;2024-02-14T01:12:33;7.23;;;7.23;;
81006;SDS011;70472;47.592;17.640;2024-02-14T01:13:06;7.17;;;7.17;;
81006;SDS011;70472;47.592;17.640;2024-02-14T01:13:38;7.33;;;7.33;;
81006;SDS011;70472;47.592;17.640;2024-02-14T01:14:11;6.90;;;6.90;;
81006;SDS011;70472;47.592;17.640;2024-02-14T01:14:43;6.93;;;6.93;;
81006;SDS011;70472;47.592;17.640;2024-02-14T01:15:16;7.30;;;7.30;;
81006;SDS011;70472;47.592;17.640;2024-02-14T01:15:49;7.93;;;7.93;;
81006;SDS011;70472;47.592;17.640;2024-02-14T01:16:23;7.90;;;7.90;;
81006;SDS011;70472;47.592;17.640;2024-02-14T01:16:57;7.67;;;7.67;;
81006;SDS011;70472;47.592;17.640;2024-02-14T01:17:32;7.47;;;7.47;;
81006;SDS011;70472;47.592;17.640;2024-02-14T01:18:04;7.50;;;7.50;;
81006;SDS011;70472;47.592;17.640;2024-02-14T01:18:37;7.57;;;7.57;;
81006;SDS011;70472;47.592;17.640;2024-02-14T01:19:10;6.77;;;6.77;;
81006;SDS011;70472;47.592;17.640;2024-02-14T01:19:43;6.63;;;6.63;;
81006;SDS011;70472;47.592;17.640;2024-02-14T01:20:15;7.03;;;7.03;;
81006;SDS011;70472;47.592;17.640;2024-02-14T01:20:48;7.17;;;7.17;;
81006;SDS011;70472;47.592;17.640;2024-02-14T01:21:22;6.83;;;6.83;;
81006;SDS011;70472;47.592;17.640;2024-02-14T01:21:57;7.43;;;7.43;;
81006;SDS011;70472;47.592;17.640;2024-02-14T01:22:30;7.67;;;7.67;;
81006;SDS011;70472;47.592;17.640;2024-02-14T01:23:03;7.20;;;7.20;;
81006;SDS011;70472;47.592;17.640;2024-02-14T01:23:38;6.83;;;6.83;;
81006;SDS011;70472;47.592;17.640;2024-02-14T01:24:10;8.00;;;8.00;;
81006;SDS011;70472;47.592;17.640;2024-02-14T01:24:43;8.07;;;8.07;;
81006;SDS011;70472;47.592;17.640;2024-02-14T01:25:15;6.97;;;6.97;;
81006;SDS011;70472;47.592;17.640;2024-02-14T01:25:48;7.33;;;7.33;;
81006;SDS011;70472;47.592;17.640;2024-02-14T01:26:20;7.57;;;7.57;;
81006;SDS011;70472;47.592;17.640;2024-02-14T01:26:53;6.97;;;6.97;;
81006;SDS011;70472;47.592;17.640;2024-02-14T01:27:25;7.10;;;7.10;;
81006;SDS011;70472;47.592;17.640;2024-02-14T01:27:58;7.70;;;7.70;;
81006;SDS011;70472;47.592;17.640;2024-02-14T01:28:31;7.93;;;7.93;;
81006;SDS011;70472;47.592;17.640;2024-02-14T01:29:04;7.43;;;7.43;;
81006;SDS011;70472;47.592;17.640;2024-02-14T01:29:36;6.73;;;6.73;;
81006;SDS011;70472;47.592;17.640;2024-02-14T01:30:09;7.07;;;7.07;;
81006;SDS011;70472;47.592;17.640;2024-02-14T01:30:43;7.37;;;7.37;;
81006;SDS011;70472;47.592;17.640;2024-02-14T01:31:15;7.83;;;7.83;;
81006;SDS011;70472;47.592;17.640;2024-02-14T01:31:48;7.77;;;7.77;;
81006;SDS011;70472;47.592;17.640;2024-02-14T01:32:21;8.27;;;8.27;;
81006;SDS011;70472;47.592;17.640;2024-02-14T01:32:53;8.17;;;8.17;;
81006;SDS011;70472;47.592;17.640;2024-02-14T01:33:26;7.73;;;7.73;;
81006;SDS011;70472;47.592;17.640;2024-02-14T01:33:58;7.60;;;7.60;;
81006;SDS011;70472;47.592;17.640;2024-02-14T01:34:31;7.70;;;7.70;;
81006;SDS011;70472;47.592;17.640;2024-02-14T01:35:03;7.47;;;7.47;;
81006;SDS011;70472;47.592;17.640;2024-02-14T01:35:36;7.77;;;7.77;;
81006;SDS011;70472;47.592;17.640;2024-02-14T01:36:09;7.13;;;7.13;;
81006;SDS011;70472;47.592;17.640;2024-02-14T01:36:41;7.33;;;7.33;;
81006;SDS011;70472;47.592;17.640;2024-02-14T01:37:14;7.83;;;7.83;;
81006;SDS011;70472;47.592;17.640;2024-02-14T01:37:46;7.70;;;7.70;;
81006;SDS011;70472;47.592;17.640;2024-02-14T01:38:20;8.30;;;8.30;;
81006;SDS011;70472;47.592;17.640;2024-02-14T01:38:53;7.70;;;7.70;;
81006;SDS011;70472;47.592;17.640;2024-02-14T01:39:26;7.30;;;7.30;;
81006;SDS011;70472;47.592;17.640;2024-02-14T01:39:58;7.73;;;7.73;;
81006;SDS011;70472;47.592;17.640;2024-02-14T01:40:30;8.60;;;8.60;;
81006;SDS011;70472;47.592;17.640;2024-02-14T01:41:03;7.83;;;7.83;;
81006;SDS011;70472;47.592;17.640;2024-02-14T01:41:45;7.37;;;7.37;;
81006;SDS011;70472;47.592;17.640;2024-02-14T01:42:20;7.43;;;7.43;;
81006;SDS011;70472;47.592;17.640;2024-02-14T01:42:53;7.53;;;7.53;;
81006;SDS011;70472;47.592;17.640;2024-02-14T01:43:25;7.67;;;7.67;;
81006;SDS011;70472;47.592;17.640;2024-02-14T01:43:58;7.33;;;7.33;;
81006;SDS011;70472;47.592;17.640;2024-02-14T01:44:30;7.23;;;7.23;;
81006;SDS011;70472;47.592;17.640;2024-02-14T01:45:05;7.20;;;7.20;;
81006;SDS011;70472;47.592;17.640;2024-02-14T01:45:38;7.73;;;7.73;;
81006;SDS011;70472;47.592;17.640;2024-02-14T01:46:10;8.30;;;8.30;;
81006;SDS011;70472;47.592;17.640;2024-02-14T01:46:43;7.77;;;7.77;;
81006;SDS011;70472;47.592;17.640;2024-02-14T01:47:16;7.53;;;7.53;;
81006;SDS011;70472;47.592;17.640;2024-02-14T01:47:49;7.50;;;7.50;;
81006;SDS011;70472;47.592;17.640;2024-02-14T01:48:23;7.43;;;7.43;;
81006;SDS011;70472;47.592;17.640;2024-02-14T01:48:55;8.07;;;8.07;;
81006;SDS011;70472;47.592;17.640;2024-02-14T01:49:28;8.23;;;8.23;;
81006;SDS011;70472;47.592;17.640;2024-02-14T01:50:01;8.53;;;8.53;;
81006;SDS011;70472;47.592;17.640;2024-02-14T01:50:34;7.60;;;7.60;;
81006;SDS011;70472;47.592;17.640;2024-02-14T01:51:08;7.97;;;7.97;;
81006;SDS011;70472;47.592;17.640;2024-02-14T01:51:43;8.23;;;8.23;;
81006;SDS011;70472;47.592;17.640;2024-02-14T01:52:18;8.37;;;8.37;;
81006;SDS011;70472;47.592;17.640;2024-02-14T01:52:51;8.30;;;8.30;;
81006;SDS011;70472;47.592;17.640;2024-02-14T01:53:28;8.40;;;8.40;;
81006;SDS011;70472;47.592;17.640;2024-02-14T01:54:03;8.50;;;8.50;;
81006;SDS011;70472;47.592;17.640;2024-02-14T01:54:36;8.00;;;8.00;;
81006;SDS011;70472;47.592;17.640;2024-02-14T01:55:09;7.97;;;7.97;;
81006;SDS011;70472;47.592;17.640;2024-02-14T01:55:44;8.50;;;8.50;;
81006;SDS011;70472;47.592;17.640;2024-02-14T01:56:17;8.77;;;8.77;;
81006;SDS011;70472;47.592;17.640;2024-02-14T01:56:50;7.93;;;7.93;;
81006;SDS011;70472;47.592;17.640;2024-02-14T01:57:22;8.20;;;8.20;;
81006;SDS011;70472;47.592;17.640;2024-02-14T01:57:56;8.57;;;8.57;;
81006;SDS011;70472;47.592;17.640;2024-02-14T01:58:30;8.47;;;8.47;;
81006;SDS011;70472;47.592;17.640;2024-02-14T01:59:04;8.20;;;8.20;;
81006;SDS011;70472;47.592;17.640;2024-02-14T01:59:37;8.27;;;8.27;;
81006;SDS011;70472;47.592;17.640;2024-02-14T02:00:10;8.10;;;8.10;;
81006;SDS011;70472;47.592;17.640;2024-02-14T02:00:43;7.63;;;7.63;;
81006;SDS011;70472;47.592;17.640;2024-02-14T02:01:18;8.40;;;8.40;;
81006;SDS011;70472;47.592;17.640;2024-02-14T02:01:51;8.70;;;8.70;;
81006;SDS011;70472;47.592;17.640;2024-02-14T02:02:26;8.83;;;8.83;;
81006;SDS011;70472;47.592;17.640;2024-02-14T02:02:58;8.70;;;8.70;;
81006;SDS011;70472;47.592;17.640;2024-02-14T02:03:31;8.17;;;8.17;;
81006;SDS011;70472;47.592;17.640;2024-02-14T02:04:04;8.40;;;8.40;;
81006;SDS011;70472;47.592;17.640;2024-02-14T02:04:37;7.97;;;7.97;;
81006;SDS011;70472;47.592;17.640;2024-02-14T02:05:09;9.10;;;9.10;;
81006;SDS011;70472;47.592;17.640;2024-02-14T02:05:42;8.73;;;8.73;;
81006;SDS011;70472;47.592;17.640;2024-02-14T02:06:14;8.50;;;8.50;;
81006;SDS011;70472;47.592;17.640;2024-02-14T02:06:47;8.80;;;8.80;;
81006;SDS011;70472;47.592;17.640;2024-02-14T02:07:19;8.33;;;8.33;;
81006;SDS011;70472;47.592;17.640;2024-02-14T02:07:52;8.80;;;8.80;;
81006;SDS011;70472;47.592;17.640;2024-02-14T02:08:25;8.20;;;8.20;;
81006;SDS011;70472;47.592;17.640;2024-02-14T02:08:57;8.27;;;8.27;;
81006;SDS011;70472;47.592;17.640;2024-02-14T02:09:31;9.07;;;9.07;;
81006;SDS011;70472;47.592;17.640;2024-02-14T02:10:03;8.53;;;8.53;;
81006;SDS011;70472;47.592;17.640;2024-02-14T02:10:39;8.40;;;8.40;;
81006;SDS011;70472;47.592;17.640;2024-02-14T02:11:12;9.77;;;9.77;;
81006;SDS011;70472;47.592;17.640;2024-02-14T02:11:51;9.70;;;9.70;;
81006;SDS011;70472;47.592;17.640;2024-02-14T02:12:25;8.53;;;8.53;;
81006;SDS011;70472;47.592;17.640;2024-02-14T02:12:58;8.73;;;8.73;;
81006;SDS011;70472;47.592;17.640;2024-02-14T02:13:31;8.10;;;8.10;;
81006;SDS011;70472;47.592;17.640;2024-02-14T02:14:03;8.50;;;8.50;;
81006;SDS011;70472;47.592;17.640;2024-02-14T02:14:36;8.87;;;8.87;;
81006;SDS011;70472;47.592;17.640;2024-02-14T02:15:08;8.10;;;8.10;;
81006;SDS011;70472;47.592;17.640;2024-02-14T02:15:41;8.63;;;8.63;;
81006;SDS011;70472;47.592;17.640;2024-02-14T02:16:14;8.40;;;8.40;;
81006;SDS011;70472;47.592;17.640;2024-02-14T02:16:46;8.37;;;8.37;;
81006;SDS011;70472;47.592;17.640;2024-02-14T02:17:19;8.17;;;8.17;;
81006;SDS011;70472;47.592;17.640;2024-02-14T02:17:51;8.73;;;8.73;;
81006;SDS011;70472;47.592;17.640;2024-02-14T02:18:26;9.07;;;9.07;;
81006;SDS011;70472;47.592;17.640;2024-02-14T02:19:00;9.30;;;9.30;;
81006;SDS011;70472;47.592;17.640;2024-02-14T02:19:33;8.50;;;8.50;;
81006;SDS011;70472;47.592;17.640;2024-02-14T02:20:06;8.47;;;8.47;;
81006;SDS011;70472;47.592;17.640;2024-02-14T02:20:39;8.50;;;8.50;;
81006;SDS011;70472;47.592;17.640;2024-02-14T02:21:11;9.03;;;9.03;;
81006;SDS011;70472;47.592;17.640;2024-02-14T02:21:44;9.00;;;9.00;;
81006;SDS011;70472;47.592;17.640;2024-02-14T02:22:17;8.17;;;8.17;;
81006;SDS011;70472;47.592;17.640;2024-02-14T02:22:49;8.30;;;8.30;;
81006;SDS011;70472;47.592;17.640;2024-02-14T02:23:21;8.97;;;8.97;;
81006;SDS011;70472;47.592;17.640;2024-02-14T02:23:54;8.77;;;8.77;;
81006;SDS011;70472;47.592;17.640;2024-02-14T02:24:30;8.23;;;8.23;;
81006;SDS011;70472;47.592;17.640;2024-02-14T02:25:03;9.00;;;9.00;;
81006;SDS011;70472;47.592;17.640;2024-02-14T02:25:36;8.10;;;8.10;;
81006;SDS011;70472;47.592;17.640;2024-02-14T02:26:08;8.77;;;8.77;;
81006;SDS011;70472;47.592;17.640;2024-02-14T02:26:41;8.30;;;8.30;;
81006;SDS011;70472;47.592;17.640;2024-02-14T02:27:13;9.17;;;9.17;;
81006;SDS011;70472;47.592;17.640;2024-02-14T02:27:46;8.87;;;8.87;;
81006;SDS011;70472;47.592;17.640;2024-02-14T02:28:19;9.33;;;9.33;;
81006;SDS011;70472;47.592;17.640;2024-02-14T02:28:51;9.03;;;9.03;;
81006;SDS011;70472;47.592;17.640;2024-02-14T02:29:24;9.67;;;9.67;;
81006;SDS011;70472;47.592;17.640;2024-02-14T02:29:56;8.97;;;8.97;;
81006;SDS011;70472;47.592;17.640;2024-02-14T02:30:29;9.87;;;9.87;;
81006;SDS011;70472;47.592;17.640;2024-02-14T02:31:01;9.27;;;9.27;;
81006;SDS011;70472;47.592;17.640;2024-02-14T02:31:35;9.20;;;9.20;;
81006;SDS011;70472;47.592;17.640;2024-02-14T02:32:07;9.57;;;9.57;;
81006;SDS011;70472;47.592;17.640;2024-02-14T02:32:40;9.27;;;9.27;;
81006;SDS011;70472;47.592;17.640;2024-02-14T02:33:14;9.47;;;9.47;;
81006;SDS011;70472;47.592;17.640;2024-02-14T02:33:47;9.40;;;9.40;;
81006;SDS011;70472;47.592;17.640;2024-02-14T02:34:19;8.93;;;8.93;;
81006;SDS011;70472;47.592;17.640;2024-02-14T02:34:52;9.60;;;9.60;;
81006;SDS011;70472;47.592;17.640;2024-02-14T02:35:25;9.80;;;9.80;;
81006;SDS011;70472;47.592;17.640;2024-02-14T02:35:58;9.30;;;9.30;;
81006;SDS011;70472;47.592;17.640;2024-02-14T02:36:30;8.93;;;8.93;;
81006;SDS011;70472;47.592;17.640;2024-02-14T02:37:03;9.10;;;9.10;;
81006;SDS011;70472;47.592;17.640;2024-02-14T02:37:35;10.00;;;10.00;;
81006;SDS011;70472;47.592;17.640;2024-02-14T02:38:08;10.27;;;10.27;;
81006;SDS011;70472;47.592;17.640;2024-02-14T02:38:40;9.73;;;9.73;;
81006;SDS011;70472;47.592;17.640;2024-02-14T02:39:13;9.80;;;9.80;;
81006;SDS011;70472;47.592;17.640;2024-02-14T02:39:45;9.90;;;9.90;;
81006;SDS011;70472;47.592;17.640;2024-02-14T02:40:18;9.30;;;9.30;;
81006;SDS011;70472;47.592;17.640;2024-02-14T02:40:50;8.10;;;8.10;;
81006;SDS011;70472;47.592;17.640;2024-02-14T02:41:23;8.30;;;8.30;;
81006;SDS011;70472;47.592;17.640;2024-02-14T02:41:56;9.63;;;9.63;;
81006;SDS011;70472;47.592;17.640;2024-02-14T02:42:28;10.53;;;10.53;;
81006;SDS011;70472;47.592;17.640;2024-02-14T02:43:01;9.47;;;9.47;;
81006;SDS011;70472;47.592;17.640;2024-02-14T02:43:34;10.17;;;10.17;;
81006;SDS011;70472;47.592;17.640;2024-02-14T02:44:06;9.10;;;9.10;;
81006;SDS011;70472;47.592;17.640;2024-02-14T02:44:39;9.20;;;9.20;;
81006;SDS011;70472;47.592;17.640;2024-02-14T02:45:11;9.27;;;9.27;;
81006;SDS011;70472;47.592;17.640;2024-02-14T02:45:44;9.37;;;9.37;;
81006;SDS011;70472;47.592;17.640;2024-02-14T02:46:16;9.33;;;9.33;;
81006;SDS011;70472;47.592;17.640;2024-02-14T02:46:50;9.40;;;9.40;;
81006;SDS011;70472;47.592;17.640;2024-02-14T02:47:23;9.10;;;9.10;;
81006;SDS011;70472;47.592;17.640;2024-02-14T02:47:55;9.37;;;9.37;;
81006;SDS011;70472;47.592;17.640;2024-02-14T02:48:28;9.30;;;9.30;;
81006;SDS011;70472;47.592;17.640;2024-02-14T02:49:00;9.37;;;9.37;;
81006;SDS011;70472;47.592;17.640;2024-02-14T02:49:33;9.80;;;9.80;;
81006;SDS011;70472;47.592;17.640;2024-02-14T02:50:05;10.23;;;10.23;;
81006;SDS011;70472;47.592;17.640;2024-02-14T02:50:38;10.30;;;10.30;;
81006;SDS011;70472;47.592;17.640;2024-02-14T02:51:11;9.97;;;9.97;;
81006;SDS011;70472;47.592;17.640;2024-02-14T02:51:43;9.33;;;9.33;;
81006;SDS011;70472;47.592;17.640;2024-02-14T02:52:16;9.43;;;9.43;;
81006;SDS011;70472;47.592;17.640;2024-02-14T02:52:48;9.23;;;9.23;;
81006;SDS011;70472;47.592;17.640;2024-02-14T02:53:20;10.07;;;10.07;;
81006;SDS011;70472;47.592;17.640;2024-02-14T02:53:54;10.40;;;10.40;;
81006;SDS011;70472;47.592;17.640;2024-02-14T02:54:26;10.73;;;10.73;;
81006;SDS011;70472;47.592;17.640;2024-02-14T02:54:59;11.43;;;11.43;;
81006;SDS011;70472;47.592;17.640;2024-02-14T02:55:31;10.17;;;10.17;;
81006;SDS011;70472;47.592;17.640;2024-02-14T02:56:04;9.73;;;9.73;;
81006;SDS011;70472;47.592;17.640;2024-02-14T02:56:37;9.80;;;9.80;;
81006;SDS011;70472;47.592;17.640;2024-02-14T02:57:10;10.67;;;10.67;;
81006;SDS011;70472;47.592;17.640;2024-02-14T02:57:43;10.20;;;10.20;;
81006;SDS011;70472;47.592;17.640;2024-02-14T02:58:15;9.83;;;9.83;;
81006;SDS011;70472;47.592;17.640;2024-02-14T02:58:50;8.93;;;8.93;;
81006;SDS011;70472;47.592;17.640;2024-02-14T02:59:23;9.27;;;9.27;;
81006;SDS011;70472;47.592;17.640;2024-02-14T02:59:56;9.87;;;9.87;;
81006;SDS011;70472;47.592;17.640;2024-02-14T03:00:28;10.40;;;10.40;;
81006;SDS011;70472;47.592;17.640;2024-02-14T03:01:01;10.07;;;10.07;;
81006;SDS011;70472;47.592;17.640;2024-02-14T03:01:36;9.00;;;9.00;;
81006;SDS011;70472;47.592;17.640;2024-02-14T03:02:10;9.43;;;9.43;;
81006;SDS011;70472;47.592;17.640;2024-02-14T03:02:43;9.63;;;9.63;;
81006;SDS011;70472;47.592;17.640;2024-02-14T03:03:16;10.30;;;10.30;;
81006;SDS011;70472;47.592;17.640;2024-02-14T03:03:48;10.53;;;10.53;;
81006;SDS011;70472;47.592;17.640;2024-02-14T03:04:22;10.53;;;10.53;;
81006;SDS011;70472;47.592;17.640;2024-02-14T03:04:56;10.70;;;10.70;;
81006;SDS011;70472;47.592;17.640;2024-02-14T03:05:29;10.60;;;10.60;;
81006;SDS011;70472;47.592;17.640;2024-02-14T03:06:03;10.17;;;10.17;;
81006;SDS011;70472;47.592;17.640;2024-02-14T03:06:37;10.40;;;10.40;;
81006;SDS011;70472;47.592;17.640;2024-02-14T03:07:10;10.13;;;10.13;;
81006;SDS011;70472;47.592;17.640;2024-02-14T03:07:46;10.43;;;10.43;;
81006;SDS011;70472;47.592;17.640;2024-02-14T03:08:18;9.97;;;9.97;;
81006;SDS011;70472;47.592;17.640;2024-02-14T03:08:51;10.00;;;10.00;;
81006;SDS011;70472;47.592;17.640;2024-02-14T03:09:23;10.67;;;10.67;;
81006;SDS011;70472;47.592;17.640;2024-02-14T03:09:56;10.37;;;10.37;;
81006;SDS011;70472;47.592;17.640;2024-02-14T03:10:29;9.93;;;9.93;;
81006;SDS011;70472;47.592;17.640;2024-02-14T03:11:05;9.20;;;9.20;;
81006;SDS011;70472;47.592;17.640;2024-02-14T03:11:38;9.87;;;9.87;;
81006;SDS011;70472;47.592;17.640;2024-02-14T03:12:11;10.43;;;10.43;;
81006;SDS011;70472;47.592;17.640;2024-02-14T03:12:49;10.60;;;10.60;;
81006;SDS011;70472;47.592;17.640;2024-02-14T03:13:24;10.17;;;10.17;;
81006;SDS011;70472;47.592;17.640;2024-02-14T03:14:00;10.67;;;10.67;;
81006;SDS011;70472;47.592;17.640;2024-02-14T03:14:32;11.03;;;11.03;;